FAOR/JNB METAR and TAF weather

Enter ICAO airport designator
Station Type Date Time Source
FAOR METAR 2018/01/22 20:00 UTC NOAA

FAOR 222000Z 01010KT CAVOK 19/14 Q1020 NOSIG


Station Type Date Time Source
FAOR Decoded METAR 2018/01/22 20:00 UTC NOAA

Station name not available
Jan 22, 2018 - 03:00 PM EST / 2018.01.22 2000 UTC
Wind: from the N (010 degrees) at 12 MPH (10 KT):0
Visibility: greater than 7 mile(s):0
Temperature: 66 F (19 C)
Dew Point: 57 F (14 C)
Relative Humidity: 72%
Pressure (altimeter): 30.12 in. Hg (1020 hPa)
ob: FAOR 222000Z 01010KT CAVOK 19/14 Q1020 NOSIG
cycle: 20

Station Type Date Time Source
FAOR TAF 2018/01/22 18:00 UTC NOAA

TAF FAOR 221600Z 2218/2324 35010KT 9999 SCT045 FEW045TCU PROB30
TEMPO 2218/2224 18010G20KT 5000 TSRA FEW040CB PROB30
TEMPO 2303/2306 22010KT -SHRA FEW040TCU
BECMG 2307/2309 SCT035 PROB30
TEMPO 2319/2322 -TSRA FEW040CB
BECMG 2320/2322 VRB04KT TX27/2313Z TN15/2304Z


Example: see airport list